North Palm Beach, Florida
Current Conditions -  °F | °C
As of 7:53 AM on Saturday 25 Oct 2014 (Local Time) from KPBI Reporting Station
Scattered Clouds Scattered Clouds  
Wind Chill: 65°   Ceiling: Unl
Heat Index: 65°   Visibility: 10mi
Dew Point: 62°   Wind: 9mph
Humidity: 90%   Direction: 320°NW
Pressure: 29.9"   Gusts: NA
Location:  26.81°N, 80.06°W
Report Text: KPBI 251153Z 32008KT 10SM SCT033 SCT050 18/17 A2990 RMK AO2 SLP126 T01830167 10239 20178 53017
Loading
Personal Weather Stations






























Interactive Weather Map
Tropical Storm Tracking
New forecast layout! Learn more

10-Day Weather Forecast

Advertisements
Track Severe Weather on mobile